Time;durP1;ratioP1;P1;durP2;ratioP2;P2;SDS_P1;SDS_P2;PMS_P1;PMS_P2;Temp;Humidity;BMP_temperature;BMP_pressure;BME280_temperature;BME280_humidity;BME280_pressure;Samples;Min_cycle;Max_cycle;Signal;HPM_P1;HPM_P2
2020/12/30 00:00:12;;;;;;;140.52;97.53;;;205.50;1945.60;;;;;;5054958;28;20031;-74
2020/12/30 00:02:38;;;;;;;131.05;87.57;;;205.60;1945.60;;;;;;5054985;28;20029;-73
2020/12/30 00:05:09;;;;;;;241.00;157.63;;;205.50;1920.00;;;;;;5054722;28;20121;-75
2020/12/30 00:07:36;;;;;;;220.07;150.93;;;205.50;1920.00;;;;;;5054848;28;20029;-74
2020/12/30 00:10:07;;;;;;;206.45;137.55;;;205.40;1920.00;;;;;;5054758;28;20021;-74
2020/12/30 00:12:33;;;;;;;194.07;115.03;;;205.40;1945.60;;;;;;5054587;28;20021;-74
2020/12/30 00:15:00;;;;;;;133.35;81.85;;;205.40;1945.60;;;;;;5054632;28;20013;-74
2020/12/30 00:17:25;;;;;;;115.93;79.65;;;205.40;1945.60;;;;;;5054515;28;20063;-72
2020/12/30 00:19:51;;;;;;;116.38;73.18;;;205.30;1945.60;;;;;;5054429;28;20053;-73
2020/12/30 00:22:18;;;;;;;110.40;71.80;;;205.30;1945.60;;;;;;5054560;28;20031;-74
2020/12/30 00:24:44;;;;;;;123.22;81.85;;;205.20;1945.60;;;;;;5054312;28;20512;-73
2020/12/30 00:27:10;;;;;;;150.90;92.53;;;205.30;1945.60;;;;;;5054303;28;20036;-74
2020/12/30 00:29:36;;;;;;;195.63;114.88;;;205.30;1945.60;;;;;;5054472;28;20025;-74
2020/12/30 00:32:02;;;;;;;190.13;121.63;;;205.30;1945.60;;;;;;5054382;28;20474;-74
2020/12/30 00:34:28;;;;;;;215.43;133.68;;;205.40;1945.60;;;;;;5054191;28;20147;-73
2020/12/30 00:36:54;;;;;;;207.63;126.15;;;205.30;1920.00;;;;;;5054097;28;20517;-74
2020/12/30 00:39:20;;;;;;;169.60;106.28;;;205.20;1945.60;;;;;;5054157;28;20063;-74
2020/12/30 00:41:52;;;;;;;198.25;120.75;;;205.20;1945.60;;;;;;5053978;28;20029;-74
2020/12/30 00:44:18;;;;;;;201.23;127.05;;;205.20;1945.60;;;;;;5054124;28;20486;-74
2020/12/30 00:46:43;;;;;;;186.85;119.35;;;205.20;1945.60;;;;;;5054205;28;20051;-75
2020/12/30 00:49:09;;;;;;;177.35;116.25;;;205.10;1945.60;;;;;;5053929;28;20021;-75
2020/12/30 00:51:36;;;;;;;173.85;114.00;;;205.00;1945.60;;;;;;5054122;28;20074;-73
2020/12/30 00:54:03;;;;;;;183.32;122.90;;;205.00;1945.60;;;;;;5053907;28;20047;-75
2020/12/30 00:56:28;;;;;;;160.02;111.45;;;204.90;1945.60;;;;;;5053876;28;20036;-74
2020/12/30 00:58:54;;;;;;;160.55;112.30;;;205.00;1945.60;;;;;;5053715;28;20020;-73
2020/12/30 01:01:20;;;;;;;151.15;101.75;;;205.00;1945.60;;;;;;5053792;28;20076;-74
2020/12/30 01:03:45;;;;;;;154.90;103.13;;;205.00;1945.60;;;;;;5053796;28;20025;-74
2020/12/30 01:06:12;;;;;;;135.25;89.68;;;205.00;1945.60;;;;;;5053623;28;20424;-74
2020/12/30 01:08:38;;;;;;;128.27;82.88;;;204.80;1945.60;;;;;;5053754;28;20017;-74
2020/12/30 01:11:03;;;;;;;114.60;73.55;;;180.00;1971.20;;;;;;5053576;28;20055;-74
2020/12/30 01:13:29;;;;;;;125.18;77.38;;;180.10;1971.20;;;;;;5053396;28;20029;-73
2020/12/30 01:15:55;;;;;;;92.53;58.72;;;180.00;1971.20;;;;;;5053591;28;20021;-74
2020/12/30 01:18:21;;;;;;;84.05;52.47;;;180.00;1971.20;;;;;;5053712;28;20043;-74
2020/12/30 01:20:47;;;;;;;79.38;54.20;;;180.10;1971.20;;;;;;5053557;28;20485;-74
2020/12/30 01:23:12;;;;;;;78.90;48.88;;;179.90;1996.80;;;;;;5053389;28;20052;-74
2020/12/30 01:25:38;;;;;;;70.90;49.78;;;179.90;1996.80;;;;;;5053352;28;20063;-75
2020/12/30 01:28:04;;;;;;;69.85;50.65;;;180.00;1971.20;;;;;;5053255;28;20032;-75
2020/12/30 01:30:29;;;;;;;72.90;49.08;;;180.00;1971.20;;;;;;5053216;28;20031;-74
2020/12/30 01:32:55;;;;;;;77.97;53.75;;;180.00;1971.20;;;;;;5053476;28;20031;-75
2020/12/30 01:35:21;;;;;;;69.20;49.80;;;180.00;1971.20;;;;;;5053286;28;20100;-73
2020/12/30 01:37:46;;;;;;;75.07;55.25;;;180.00;1945.60;;;;;;5053398;28;20377;-74
2020/12/30 01:40:12;;;;;;;77.43;54.90;;;180.00;1945.60;;;;;;5053179;28;20033;-74
2020/12/30 01:42:48;;;;;;;83.57;57.60;;;180.00;1945.60;;;;;;5053085;28;20048;-74
2020/12/30 01:45:14;;;;;;;88.10;59.28;;;179.90;1971.20;;;;;;5053247;28;20076;-74
2020/12/30 01:47:43;;;;;;;78.85;56.42;;;180.00;1945.60;;;;;;5052667;28;20351;-74
2020/12/30 01:50:09;;;;;;;96.32;66.65;;;179.90;1945.60;;;;;;5053178;28;20103;-74
2020/12/30 01:52:35;;;;;;;109.43;66.78;;;179.90;1945.60;;;;;;5053067;28;20025;-75
2020/12/30 01:55:02;;;;;;;91.63;65.10;;;179.90;1945.60;;;;;;5051047;28;20036;-75
2020/12/30 01:57:31;;;;;;;105.95;70.18;;;180.00;1945.60;;;;;;5053254;28;20013;-73
2020/12/30 01:59:57;;;;;;;105.00;66.70;;;180.00;1945.60;;;;;;5053063;28;20151;-75
2020/12/30 02:02:28;;;;;;;100.15;69.93;;;179.90;1945.60;;;;;;5053205;28;20116;-74
2020/12/30 02:04:56;;;;;;;105.38;66.97;;;179.90;1945.60;;;;;;5052928;28;20122;-74
2020/12/30 02:07:24;;;;;;;92.00;61.22;;;179.80;1945.60;;;;;;5052959;28;20492;-74
2020/12/30 02:09:51;;;;;;;85.47;56.08;;;179.80;1945.60;;;;;;5052966;28;20385;-75
2020/12/30 02:12:18;;;;;;;74.25;46.65;;;179.70;1971.20;;;;;;5052928;28;20028;-74
2020/12/30 02:14:43;;;;;;;74.95;47.78;;;179.60;1996.80;;;;;;5052940;28;20021;-74
2020/12/30 02:17:16;;;;;;;52.55;34.63;;;179.70;1996.80;;;;;;5053160;28;20490;-74
2020/12/30 02:19:43;;;;;;;49.55;32.70;;;179.50;1996.80;;;;;;5052872;28;20023;-74
2020/12/30 02:22:12;;;;;;;45.40;27.58;;;179.50;1996.80;;;;;;5052686;28;20151;-74
2020/12/30 02:24:37;;;;;;;45.83;30.75;;;179.50;1996.80;;;;;;5052447;28;20133;-74
2020/12/30 02:27:05;;;;;;;52.05;33.38;;;179.50;1996.80;;;;;;5052779;28;20053;-74
2020/12/30 02:29:32;;;;;;;52.03;33.13;;;179.50;1996.80;;;;;;5052806;28;20055;-75
2020/12/30 02:31:59;;;;;;;51.28;30.15;;;179.50;1971.20;;;;;;5052765;28;20017;-75
2020/12/30 02:34:25;;;;;;;47.85;32.58;;;179.60;1971.20;;;;;;5052672;28;20111;-74
2020/12/30 02:36:51;;;;;;;44.65;31.33;;;179.50;1971.20;;;;;;5052555;28;20025;-75
2020/12/30 02:39:19;;;;;;;42.65;29.13;;;179.50;1971.20;;;;;;5052697;28;20075;-75
2020/12/30 02:41:45;;;;;;;54.83;36.08;;;179.50;1971.20;;;;;;5052642;28;20432;-75
2020/12/30 02:44:11;;;;;;;61.80;39.90;;;179.40;1996.80;;;;;;5052773;28;20029;-74
2020/12/30 02:46:36;;;;;;;60.53;40.75;;;179.20;1996.80;;;;;;5052904;28;20025;-74
2020/12/30 02:49:02;;;;;;;60.63;40.13;;;154.50;1996.80;;;;;;5052573;28;20028;-74
2020/12/30 02:51:28;;;;;;;67.78;40.83;;;154.50;1996.80;;;;;;5052369;28;20063;-75
2020/12/30 02:53:54;;;;;;;58.75;36.90;;;154.50;2022.40;;;;;;5052366;28;20462;-74
2020/12/30 02:56:20;;;;;;;59.45;39.50;;;179.20;2022.40;;;;;;5052621;28;20074;-74
2020/12/30 02:58:47;;;;;;;56.92;36.95;;;179.20;2022.40;;;;;;5052499;28;20074;-74
2020/12/30 03:01:13;;;;;;;56.00;34.30;;;154.50;2022.40;;;;;;5055787;28;20017;-74
2020/12/30 03:03:40;;;;;;;47.53;29.98;;;154.50;2022.40;;;;;;5056016;28;20497;-75
2020/12/30 03:06:06;;;;;;;44.53;25.08;;;179.30;1996.80;;;;;;5054572;28;20389;-74
2020/12/30 03:08:33;;;;;;;37.08;23.83;;;179.20;1996.80;;;;;;5056042;28;20017;-75
2020/12/30 03:10:59;;;;;;;40.90;22.65;;;179.30;1996.80;;;;;;5056101;28;20390;-75
2020/12/30 03:13:25;;;;;;;42.50;24.08;;;154.50;1996.80;;;;;;5056170;28;20504;-74
2020/12/30 03:15:52;;;;;;;33.47;23.15;;;154.50;1996.80;;;;;;5055774;28;20025;-75
2020/12/30 03:18:18;;;;;;;35.92;25.25;;;154.50;1996.80;;;;;;5055668;28;20112;-75
2020/12/30 03:20:43;;;;;;;32.92;21.83;;;154.50;1996.80;;;;;;5055805;28;20052;-73
2020/12/30 03:23:09;;;;;;;34.90;22.02;;;154.40;1996.80;;;;;;5055551;28;20425;-74
2020/12/30 03:25:35;;;;;;;33.45;22.52;;;154.40;1996.80;;;;;;5055544;28;20043;-74
2020/12/30 03:28:02;;;;;;;33.00;23.27;;;154.40;2022.40;;;;;;5055561;28;20047;-74
2020/12/30 03:30:28;;;;;;;34.60;23.50;;;154.40;1996.80;;;;;;5055725;28;20021;-73
2020/12/30 03:32:54;;;;;;;31.30;22.50;;;154.50;1996.80;;;;;;5055461;28;20062;-74
2020/12/30 03:35:24;;;;;;;34.55;23.05;;;154.40;1996.80;;;;;;5055426;28;20100;-75
2020/12/30 03:37:52;;;;;;;36.20;24.67;;;154.50;1996.80;;;;;;5055489;28;20021;-74
2020/12/30 03:40:19;;;;;;;33.30;24.50;;;154.50;1996.80;;;;;;5055288;28;20108;-74
2020/12/30 03:42:44;;;;;;;40.58;23.52;;;154.50;1971.20;;;;;;5055416;28;20046;-74
2020/12/30 03:45:10;;;;;;;40.40;26.23;;;154.50;1996.80;;;;;;5055293;28;20134;-74
2020/12/30 03:47:36;;;;;;;40.85;27.83;;;154.50;1971.20;;;;;;5055123;28;20462;-74
2020/12/30 03:50:02;;;;;;;51.78;29.23;;;154.40;1971.20;;;;;;5055166;28;20029;-74
2020/12/30 03:52:28;;;;;;;57.97;38.00;;;154.30;1996.80;;;;;;5055086;28;20083;-74
2020/12/30 03:54:53;;;;;;;75.40;43.35;;;154.50;1971.20;;;;;;5055003;28;20477;-73
2020/12/30 03:57:19;;;;;;;62.70;37.55;;;154.40;1996.80;;;;;;5055344;28;20355;-74
2020/12/30 03:59:45;;;;;;;58.95;40.17;;;154.30;1996.80;;;;;;5055131;28;20032;-75
2020/12/30 04:02:11;;;;;;;61.47;40.17;;;154.20;1996.80;;;;;;5054866;28;20028;-74
2020/12/30 04:04:36;;;;;;;60.60;40.85;;;154.30;1996.80;;;;;;5054878;28;20036;-75
2020/12/30 04:07:02;;;;;;;65.05;39.90;;;154.30;2022.40;;;;;;5054764;28;20020;-75
2020/12/30 04:09:28;;;;;;;58.80;36.88;;;154.20;2022.40;;;;;;5054686;28;20482;-74
2020/12/30 04:11:54;;;;;;;58.40;33.60;;;154.10;2022.40;;;;;;5054578;28;20025;-74
2020/12/30 04:14:19;;;;;;;54.70;32.83;;;154.10;2022.40;;;;;;5054763;28;20025;-74
2020/12/30 04:16:45;;;;;;;73.20;41.15;;;154.20;2022.40;;;;;;5054513;28;20028;-74
2020/12/30 04:19:11;;;;;;;76.60;44.42;;;154.10;2022.40;;;;;;5054599;28;20469;-74
2020/12/30 04:21:37;;;;;;;82.65;47.28;;;154.10;2022.40;;;;;;5053210;28;20032;-74
2020/12/30 04:24:03;;;;;;;79.80;46.50;;;154.00;2022.40;;;;;;5054250;28;20041;-75
2020/12/30 04:26:29;;;;;;;75.25;44.30;;;154.00;2022.40;;;;;;5054458;28;20036;-75
2020/12/30 04:28:55;;;;;;;71.68;41.90;;;154.00;2022.40;;;;;;5054321;28;20386;-76
2020/12/30 04:31:21;;;;;;;65.07;42.17;;;154.20;2022.40;;;;;;5054572;28;20029;-75
2020/12/30 04:33:46;;;;;;;69.70;41.38;;;154.10;2022.40;;;;;;5054450;28;20371;-75
2020/12/30 04:36:13;;;;;;;97.88;51.40;;;154.10;2022.40;;;;;;5054174;28;20474;-76
2020/12/30 04:38:40;;;;;;;97.05;53.75;;;154.00;2022.40;;;;;;5054229;28;20063;-74
2020/12/30 04:41:09;;;;;;;78.10;42.28;;;154.00;2022.40;;;;;;5054273;28;20024;-75
2020/12/30 04:43:37;;;;;;;62.65;34.25;;;154.00;2022.40;;;;;;5054015;28;20355;-74
2020/12/30 04:46:04;;;;;;;141.63;71.22;;;154.10;2022.40;;;;;;5054039;28;20389;-75
2020/12/30 04:48:32;;;;;;;125.28;63.40;;;154.10;2022.40;;;;;;5054041;28;20016;-74
2020/12/30 04:50:58;;;;;;;143.13;74.38;;;154.00;2022.40;;;;;;5054070;28;20501;-74
2020/12/30 04:53:24;;;;;;;222.75;97.97;;;153.90;2022.40;;;;;;5054022;28;20033;-74
2020/12/30 04:55:51;;;;;;;194.32;99.32;;;154.00;2022.40;;;;;;5054002;28;20549;-75
2020/12/30 04:58:18;;;;;;;165.82;93.20;;;153.60;2048.00;;;;;;5053798;28;20017;-75
2020/12/30 05:00:46;;;;;;;145.80;74.93;;;153.70;2048.00;;;;;;5053573;28;20112;-74
2020/12/30 05:03:13;;;;;;;112.47;64.05;;;153.70;2048.00;;;;;;5053896;28;20017;-74
2020/12/30 05:05:40;;;;;;;92.25;53.58;;;153.80;2048.00;;;;;;5053659;28;20029;-75
2020/12/30 05:08:14;;;;;;;72.78;45.05;;;153.70;2048.00;;;;;;5053726;28;20032;-74
2020/12/30 05:10:40;;;;;;;;;;;153.80;2048.00;;;;;;5053633;28;20021;-74
2020/12/30 05:13:07;;;;;;;83.35;47.83;;;153.70;2073.60;;;;;;5053668;28;19905;-74
2020/12/30 05:15:33;;;;;;;76.85;45.97;;;153.80;2048.00;;;;;;5053452;28;20013;-74
2020/12/30 05:18:06;;;;;;;70.15;42.13;;;153.80;2048.00;;;;;;5053701;28;20036;-74
2020/12/30 05:20:35;;;;;;;80.65;49.15;;;153.70;2073.60;;;;;;5053339;28;20017;-74
2020/12/30 05:23:05;;;;;;;69.82;42.85;;;153.70;2048.00;;;;;;5052678;28;20033;-75
2020/12/30 05:25:34;;;;;;;54.53;37.22;;;153.80;2048.00;;;;;;5053382;28;20079;-76
2020/12/30 05:28:07;;;;;;;63.30;35.88;;;153.70;2073.60;;;;;;5053445;28;20024;-75
2020/12/30 05:30:33;;;;;;;51.20;33.13;;;153.80;2048.00;;;;;;5053502;28;20036;-75
2020/12/30 05:33:00;;;;;;;58.33;36.78;;;153.80;2048.00;;;;;;5053329;28;20036;-75
2020/12/30 05:35:30;;;;;;;63.22;39.15;;;153.70;2073.60;;;;;;5053140;28;20096;-76
2020/12/30 05:37:56;;;;;;;77.07;47.63;;;153.80;2048.00;;;;;;5053230;28;20013;-75
2020/12/30 05:40:29;;;;;;;68.90;44.10;;;153.90;2048.00;;;;;;5053047;28;20415;-75
2020/12/30 05:43:12;;;;;;;64.77;42.40;;;153.80;2048.00;;;;;;5053347;28;20052;-75
2020/12/30 05:45:49;;;;;;;71.60;43.83;;;153.70;2073.60;;;;;;5053104;28;20297;-74
2020/12/30 05:48:19;;;;;;;76.45;51.03;;;153.80;2048.00;;;;;;5051794;28;20377;-75
2020/12/30 05:50:58;;;;;;;67.63;42.33;;;153.80;2048.00;;;;;;5053082;28;20485;-75
2020/12/30 05:53:24;;;;;;;65.40;41.88;;;153.80;2048.00;;;;;;5052995;28;20032;-75
2020/12/30 05:55:53;;;;;;;89.10;49.65;;;153.80;2048.00;;;;;;5053194;28;20025;-75
2020/12/30 05:58:19;;;;;;;134.00;74.18;;;153.70;2073.60;;;;;;5053271;28;20056;-75
2020/12/30 06:00:45;;;;;;;152.57;86.13;;;153.70;2073.60;;;;;;5053056;28;20114;-75
2020/12/30 06:03:15;;;;;;;204.70;113.13;;;153.80;2048.00;;;;;;5053051;28;20071;-75
2020/12/30 06:05:42;;;;;;;158.52;91.03;;;153.90;2048.00;;;;;;5052547;28;20033;-74
2020/12/30 06:08:08;;;;;;;140.55;83.63;;;153.70;2073.60;;;;;;5051527;28;20036;-75
2020/12/30 06:10:40;;;;;;;154.82;85.78;;;153.80;2073.60;;;;;;5053004;28;20029;-75
2020/12/30 06:13:08;;;;;;;135.40;84.50;;;153.80;2073.60;;;;;;5053007;28;20017;-75
2020/12/30 06:15:34;;;;;;;138.52;85.70;;;153.70;2099.20;;;;;;5053078;28;20063;-74
2020/12/30 06:18:01;;;;;;;193.38;112.95;;;153.70;2099.20;;;;;;5052888;28;20048;-74
2020/12/30 06:20:32;;;;;;;162.50;98.00;;;153.80;2099.20;;;;;;5052922;28;20032;-75
2020/12/30 06:23:09;;;;;;;123.28;80.00;;;153.90;2099.20;;;;;;5052444;28;20431;-75
2020/12/30 06:25:39;;;;;;;121.90;78.13;;;154.10;2073.60;;;;;;5052755;28;20098;-74
2020/12/30 06:28:09;;;;;;;131.40;81.68;;;154.00;2099.20;;;;;;5052776;28;20023;-74
2020/12/30 06:30:35;;;;;;;142.82;92.13;;;153.90;2099.20;;;;;;5052979;28;20036;-74
2020/12/30 06:33:02;;;;;;;190.30;114.50;;;154.00;2099.20;;;;;;5052426;28;20025;-73
2020/12/30 06:35:29;;;;;;;185.23;115.93;;;154.20;2099.20;;;;;;5055922;28;20065;-74
2020/12/30 06:37:55;;;;;;;177.45;114.65;;;154.20;2099.20;;;;;;5056204;28;20021;-74
2020/12/30 06:40:30;;;;;;;196.25;123.28;;;154.40;2073.60;;;;;;5056473;28;20099;-74
2020/12/30 06:43:00;;;;;;;169.77;105.47;;;154.50;2073.60;;;;;;5056385;28;20017;-74
2020/12/30 06:45:44;;;;;;;163.07;101.75;;;179.20;2073.60;;;;;;5056311;28;20079;-75
2020/12/30 06:48:11;;;;;;;151.82;92.57;;;179.30;2073.60;;;;;;5056385;28;20070;-74
2020/12/30 06:50:37;;;;;;;150.63;96.15;;;179.40;2073.60;;;;;;5056185;28;20021;-75
2020/12/30 06:53:35;;;;;;;168.73;105.40;;;179.50;2048.00;;;;;;5056233;28;20067;-74
2020/12/30 06:56:02;;;;;;;162.40;103.22;;;179.60;2073.60;;;;;;5034167;28;20509;-73
2020/12/30 06:58:48;;;;;;;214.70;130.80;;;179.60;2073.60;;;;;;5034227;28;21113;-74
2020/12/30 07:01:19;;;;;;;211.45;131.40;;;179.60;2073.60;;;;;;5032937;28;20033;-73
2020/12/30 07:03:49;;;;;;;215.90;135.57;;;179.70;2073.60;;;;;;5030047;28;20033;-74
2020/12/30 07:06:33;;;;;;;230.68;151.00;;;179.70;2099.20;;;;;;5033073;28;20096;-74
2020/12/30 07:09:01;;;;;;;221.98;139.88;;;179.80;2073.60;;;;;;5031813;28;20045;-74
2020/12/30 07:11:43;;;;;;;208.50;140.27;;;179.80;2099.20;;;;;;5028241;28;20037;-75
2020/12/30 07:14:10;;;;;;;202.80;132.48;;;180.00;2099.20;;;;;;5033715;28;20033;-73
2020/12/30 07:16:37;;;;;;;211.48;138.73;;;180.10;2099.20;;;;;;5033861;28;20037;-73
2020/12/30 07:19:22;;;;;;;217.82;155.25;;;204.80;2099.20;;;;;;5033669;28;20040;-74
2020/12/30 07:21:48;;;;;;;228.63;154.02;;;205.00;2073.60;;;;;;5033680;28;20026;-74
2020/12/30 07:24:25;;;;;;;187.82;123.97;;;205.00;2099.20;;;;;;5033231;28;20048;-74
2020/12/30 07:26:54;;;;;;;133.95;94.78;;;205.10;2099.20;;;;;;5033504;28;20044;-74
2020/12/30 07:29:21;;;;;;;79.55;53.55;;;205.00;2124.80;;;;;;5033725;28;20076;-75
2020/12/30 07:31:49;;;;;;;59.70;44.55;;;205.20;2099.20;;;;;;5046173;28;20033;-73
2020/12/30 07:34:20;;;;;;;59.72;44.92;;;205.20;2124.80;;;;;;5055329;28;20013;-74
2020/12/30 07:36:47;;;;;;;57.92;39.05;;;205.20;2124.80;;;;;;5055360;28;20550;-74
2020/12/30 07:39:15;;;;;;;47.80;37.00;;;205.20;2150.40;;;;;;5054439;28;20090;-75
2020/12/30 07:41:45;;;;;;;58.88;40.70;;;205.30;2176.00;;;;;;5055479;28;20021;-74
2020/12/30 07:44:12;;;;;;;76.00;51.88;;;205.50;2124.80;;;;;;5055639;28;20473;-74
2020/12/30 07:46:38;;;;;;;104.38;73.40;;;205.60;2099.20;;;;;;5054424;28;20075;-73
2020/12/30 07:49:22;;;;;;;123.30;83.75;;;205.60;2150.40;;;;;;5055240;28;20416;-73
2020/12/30 07:51:52;;;;;;;107.80;73.00;;;205.60;2150.40;;;;;;5055076;28;20035;-74
2020/12/30 07:54:20;;;;;;;92.55;63.17;;;205.70;2124.80;;;;;;5055037;28;20029;-75
2020/12/30 07:56:46;;;;;;;94.28;67.75;;;230.40;2124.80;;;;;;5054707;28;20036;-74
2020/12/30 07:59:22;;;;;;;118.55;79.72;;;230.50;2099.20;;;;;;5055054;28;20029;-73
2020/12/30 08:02:09;;;;;;;110.40;78.10;;;230.60;2124.80;;;;;;5054975;28;20017;-74
2020/12/30 08:04:36;;;;;;;108.20;76.57;;;230.70;2099.20;;;;;;5054762;28;20067;-74
2020/12/30 08:07:13;;;;;;;120.22;87.03;;;230.80;2099.20;;;;;;5055011;28;20025;-73
2020/12/30 08:09:41;;;;;;;114.68;85.20;;;230.80;2099.20;;;;;;5055050;28;20032;-73
2020/12/30 08:12:08;;;;;;;113.63;84.22;;;230.90;2099.20;;;;;;5054552;28;20100;-74
2020/12/30 08:14:36;;;;;;;111.95;78.53;;;231.00;2073.60;;;;;;5054669;28;20027;-73
2020/12/30 08:17:10;;;;;;;154.32;106.03;;;231.00;2073.60;;;;;;5054619;28;20027;-74
2020/12/30 08:19:43;;;;;;;178.07;134.05;;;231.00;2099.20;;;;;;5054718;28;20083;-74
2020/12/30 08:22:19;;;;;;;197.20;151.63;;;231.30;2073.60;;;;;;5054537;28;20028;-73
2020/12/30 08:24:50;;;;;;;199.45;150.25;;;256.10;2073.60;;;;;;5054398;28;20624;-73
2020/12/30 08:27:18;;;;;;;167.20;122.63;;;256.40;2048.00;;;;;;5054406;28;20016;-73
2020/12/30 08:29:45;;;;;;;145.60;107.38;;;256.50;2048.00;;;;;;5054241;28;20055;-74
2020/12/30 08:32:35;;;;;;;123.38;90.00;;;256.60;2048.00;;;;;;5054235;28;20017;-73
2020/12/30 08:35:37;;;;;;;111.63;82.40;;;256.70;2022.40;;;;;;5054413;28;20021;-74
2020/12/30 08:38:06;;;;;;;116.43;82.25;;;256.70;2022.40;;;;;;5054119;28;20088;-74
2020/12/30 08:40:35;;;;;;;111.80;84.38;;;256.70;2022.40;;;;;;5054190;28;20123;-75
2020/12/30 08:43:32;;;;;;;131.07;93.72;;;256.80;2022.40;;;;;;5054145;28;20436;-74
2020/12/30 08:46:23;;;;;;;144.50;103.03;;;256.90;1996.80;;;;;;5054140;28;20037;-75
2020/12/30 08:48:50;;;;;;;140.20;101.32;;;281.60;2048.00;;;;;;5015447;28;20545;-73
2020/12/30 08:51:26;;;;;;;123.68;89.10;;;281.80;2022.40;;;;;;5032242;28;20056;-76
2020/12/30 08:53:52;;;;;;;123.35;87.07;;;282.10;1996.80;;;;;;5032092;28;20029;-77
2020/12/30 08:56:19;;;;;;;99.03;66.35;;;282.20;1996.80;;;;;;5031715;28;20036;-76
2020/12/30 08:59:19;;;;;;;105.75;75.32;;;282.50;1971.20;;;;;;5032029;28;20083;-75
2020/12/30 09:01:45;;;;;;;98.15;70.22;;;307.30;1996.80;;;;;;5031838;28;20030;-76
2020/12/30 09:04:12;;;;;;;101.38;72.63;;;307.30;1996.80;;;;;;5031990;28;20421;-75
2020/12/30 09:06:41;;;;;;;85.35;60.08;;;307.20;1996.80;;;;;;5031719;28;20069;-76
2020/12/30 09:09:14;;;;;;;52.42;39.92;;;307.30;1996.80;;;;;;5015252;28;20044;-76
2020/12/30 09:11:50;;;;;;;;;;;307.40;1971.20;;;;;;5031942;28;20026;-77
2020/12/30 09:14:23;;;;;;;27.23;20.75;;;307.40;1971.20;;;;;;5031926;28;19905;-75
2020/12/30 09:17:11;;;;;;;38.65;23.08;;;307.70;1945.60;;;;;;5031654;28;20033;-74
2020/12/30 09:19:37;;;;;;;22.25;13.63;;;307.90;1894.40;;;;;;5031292;28;20104;-74
2020/12/30 09:22:09;;;;;;;24.40;14.30;;;308.00;1894.40;;;;;;5031474;28;20037;-74
2020/12/30 09:24:51;;;;;;;21.42;12.85;;;332.80;1894.40;;;;;;5111165;27;20411;-75
2020/12/30 09:27:21;;;;;;;15.10;10.60;;;333.10;1868.80;;;;;;5111301;28;20476;-75
2020/12/30 09:30:07;;;;;;;16.85;11.48;;;332.90;1868.80;;;;;;5109832;28;20028;-75
2020/12/30 09:32:33;;;;;;;31.77;20.92;;;332.90;1868.80;;;;;;5109943;28;20499;-75
2020/12/30 09:35:08;;;;;;;26.13;18.10;;;308.10;1843.20;;;;;;5109297;28;20071;-76
2020/12/30 09:37:34;;;;;;;22.77;14.23;;;308.00;1868.80;;;;;;5110977;28;20020;-75
2020/12/30 09:40:09;;;;;;;19.35;13.70;;;307.90;1868.80;;;;;;5110820;28;20012;-75
2020/12/30 09:42:35;;;;;;;26.83;15.57;;;307.80;1868.80;;;;;;5110827;28;20110;-75
2020/12/30 09:45:12;;;;;;;143.50;83.30;;;307.70;1894.40;;;;;;5110882;28;20493;-75
2020/12/30 09:47:39;;;;;;;79.05;44.38;;;307.80;1868.80;;;;;;5110849;28;20050;-76
2020/12/30 09:50:07;;;;;;;34.25;20.33;;;307.90;1868.80;;;;;;5110655;28;20376;-75
2020/12/30 09:52:38;;;;;;;33.95;22.05;;;308.00;1843.20;;;;;;5110594;28;20020;-76
2020/12/30 09:55:05;;;;;;;34.17;23.27;;;308.10;1868.80;;;;;;5110787;28;20085;-74
2020/12/30 09:57:32;;;;;;;41.83;26.80;;;332.80;1868.80;;;;;;5110887;28;20016;-75
2020/12/30 09:59:59;;;;;;;46.33;29.52;;;333.00;1843.20;;;;;;5110501;28;20027;-75
2020/12/30 10:02:26;;;;;;;40.67;25.10;;;333.20;1843.20;;;;;;5109000;28;20031;-75
2020/12/30 10:04:52;;;;;;;41.40;26.10;;;333.50;1792.00;;;;;;5108763;28;20131;-75
2020/12/30 10:07:18;;;;;;;43.25;26.38;;;333.60;1792.00;;;;;;5110320;28;20051;-76
2020/12/30 10:09:44;;;;;;;33.35;21.15;;;358.40;1766.40;;;;;;5109174;28;20024;-75
2020/12/30 10:12:09;;;;;;;23.30;15.20;;;358.50;1766.40;;;;;;5110684;28;20077;-76
2020/12/30 10:14:35;;;;;;;35.25;21.05;;;358.70;1715.20;;;;;;5110237;28;20031;-76
2020/12/30 10:17:01;;;;;;;29.95;18.70;;;359.00;1715.20;;;;;;5110277;28;20020;-76
2020/12/30 10:19:26;;;;;;;28.05;17.90;;;359.10;1715.20;;;;;;5110068;28;20420;-75
2020/12/30 10:21:52;;;;;;;36.20;21.92;;;359.20;1664.00;;;;;;5109795;28;20020;-75
2020/12/30 10:24:18;;;;;;;29.13;18.67;;;359.20;1664.00;;;;;;5109937;28;20077;-76
2020/12/30 10:26:44;;;;;;;27.05;16.00;;;359.10;1689.60;;;;;;5110213;28;20035;-76
2020/12/30 10:29:10;;;;;;;30.60;19.15;;;358.90;1689.60;;;;;;5108878;28;20081;-75
2020/12/30 10:31:36;;;;;;;27.55;17.70;;;358.70;1715.20;;;;;;5109897;28;20095;-76
2020/12/30 10:34:01;;;;;;;44.10;27.92;;;358.50;1740.80;;;;;;5108818;28;20020;-75
2020/12/30 10:36:32;;;;;;;40.30;29.00;;;358.60;1740.80;;;;;;5095848;28;20034;-76
2020/12/30 10:39:01;;;;;;;55.58;39.47;;;358.70;1715.20;;;;;;5096208;28;20016;-76
2020/12/30 10:41:27;;;;;;;53.42;37.55;;;358.60;1740.80;;;;;;5096239;28;20020;-75
2020/12/30 10:43:54;;;;;;;53.05;36.85;;;358.70;1740.80;;;;;;5078058;28;20131;-75
2020/12/30 10:46:20;;;;;;;51.72;33.30;;;358.80;1740.80;;;;;;5096269;28;20518;-76
2020/12/30 10:48:47;;;;;;;43.80;31.92;;;359.10;1715.20;;;;;;5095833;28;20028;-75
2020/12/30 10:51:17;;;;;;;38.33;24.67;;;359.20;1715.20;;;;;;5094768;28;20021;-74
2020/12/30 10:53:43;;;;;;;40.45;27.33;;;359.10;1689.60;;;;;;5096119;28;20020;-75
2020/12/30 10:56:10;;;;;;;48.10;31.08;;;359.00;1715.20;;;;;;5096023;28;20026;-76
2020/12/30 10:58:37;;;;;;;42.13;30.23;;;359.00;1715.20;;;;;;5094569;28;20377;-75
2020/12/30 11:01:09;;;;;;;31.00;23.50;;;358.90;1715.20;;;;;;5095732;28;20086;-76
2020/12/30 11:03:35;;;;;;;38.40;27.15;;;359.00;1715.20;;;;;;5095630;28;20106;-76
2020/12/30 11:06:01;;;;;;;36.15;24.88;;;359.00;1715.20;;;;;;5096087;28;20437;-76
2020/12/30 11:08:28;;;;;;;43.72;28.10;;;358.90;1715.20;;;;;;5095756;28;20027;-75
2020/12/30 11:10:56;;;;;;;48.63;31.23;;;358.70;1740.80;;;;;;5095697;28;20037;-74
2020/12/30 11:13:22;;;;;;;34.58;22.63;;;358.60;1766.40;;;;;;5094458;28;20032;-75
2020/12/30 11:15:48;;;;;;;37.92;25.20;;;358.40;1792.00;;;;;;5096067;28;20070;-75
2020/12/30 11:18:14;;;;;;;46.95;31.70;;;333.70;1817.60;;;;;;5094068;28;20028;-76
2020/12/30 11:20:40;;;;;;;30.80;20.80;;;333.50;1817.60;;;;;;5094222;28;20430;-76
2020/12/30 11:23:06;;;;;;;39.33;30.08;;;333.40;1843.20;;;;;;5095178;28;20386;-75
2020/12/30 11:25:31;;;;;;;52.40;39.60;;;333.30;1894.40;;;;;;5095548;28;20081;-75
2020/12/30 11:27:57;;;;;;;68.30;49.95;;;333.20;1894.40;;;;;;5095443;28;20020;-75
2020/12/30 11:30:23;;;;;;;73.63;54.92;;;333.10;1894.40;;;;;;5095094;28;20058;-75
2020/12/30 11:32:50;;;;;;;83.82;59.55;;;333.10;1920.00;;;;;;5095372;28;20024;-74
2020/12/30 11:35:16;;;;;;;116.25;80.97;;;333.10;1920.00;;;;;;5094143;28;20072;-76
2020/12/30 11:37:42;;;;;;;86.80;58.97;;;333.10;1945.60;;;;;;5095086;28;20385;-75
2020/12/30 11:40:07;;;;;;;64.93;47.10;;;333.10;1971.20;;;;;;5093674;28;20032;-75
2020/12/30 11:42:33;;;;;;;56.60;44.28;;;333.00;1971.20;;;;;;5094977;28;20030;-75
2020/12/30 11:44:59;;;;;;;45.75;35.85;;;333.00;1971.20;;;;;;5094871;28;20027;-75
2020/12/30 11:47:26;;;;;;;54.33;42.25;;;332.90;1996.80;;;;;;5092372;28;20036;-75
2020/12/30 11:49:52;;;;;;;59.35;47.03;;;332.90;1996.80;;;;;;5093585;28;20400;-75
2020/12/30 11:52:18;;;;;;;64.32;48.25;;;333.10;1996.80;;;;;;5094808;28;20023;-75
2020/12/30 11:54:44;;;;;;;72.05;55.40;;;333.10;1996.80;;;;;;5094875;28;20110;-75
2020/12/30 11:57:10;;;;;;;72.65;56.00;;;333.10;1996.80;;;;;;5094785;28;20059;-74
2020/12/30 11:59:36;;;;;;;65.63;48.97;;;333.20;1996.80;;;;;;5093369;28;20039;-75
2020/12/30 12:02:02;;;;;;;67.70;50.08;;;333.20;1996.80;;;;;;5093237;28;20516;-75